Izumo Princess — SXMB — position and weather

sailwx.info

Track history (hours):
 
Tides and Currents Weather Stations Pressure Air Temp Water Temp Dewpoint Dewpoint Depression Visibility Wind Speed Wind Dir Waves Ship Positions

Izumo Princess

Last reported at 2014-Aug-16 13:12 UTC. Time now 2014-Aug-21 18:07 UTC.
Position N 40°52' E 028°29'.

Length 229 m; draft 12.3 m.

Type: Ship (hazmat cat B). MMSI: 240611000.

Date/timePositionNaut miles runAvg speedWind from/ knotsBaromVisibWave heightAir tempDewpointWater temp
2014-Aug-16 13:12N 40°52' E 028°29'812.2
2014-Aug-16 12:34N 40°54' E 028°39'1211.7
2014-Aug-16 11:33N 40°56' E 028°54'21 9.2
2014-Aug-16 09:17N 41°14' E 029°08'1011.4
2014-Aug-16 08:22N 41°24' E 029°13'23 2.0
2014-Aug-15 20:33N 41°32' E 029°42'21212.3
2014-Aug-15 03:20N 42°20' E 034°19'  
2014-Aug-10 01:06N 42°15' E 036°07'3011.1
2014-Aug-09 22:26N 42°19' E 035°27'1011.1
2014-Aug-09 21:33N 42°20' E 035°14'1110.8
2014-Aug-09 20:33N 42°22' E 034°60'  
Track history (hours):
 
Tides and Currents Weather Stations Pressure Air Temp Water Temp Dewpoint Dewpoint Depression Visibility Wind Speed Wind Dir Waves Ship Positions

Izumo Princess

Last reported at 2014-Aug-16 13:12 UTC. Time now 2014-Aug-21 18:07 UTC.
Position N 40°52' E 028°29'.

Length 229 m; draft 12.3 m.

Type: Ship (hazmat cat B). MMSI: 240611000.

Date/timePositionNaut miles runAvg speedWind from/ knotsBaromVisibWave heightAir tempDewpointWater temp
2014-Aug-16 13:12N 40°52' E 028°29'812.2
2014-Aug-16 12:34N 40°54' E 028°39'1211.7
2014-Aug-16 11:33N 40°56' E 028°54'21 9.2
2014-Aug-16 09:17N 41°14' E 029°08'1011.4
2014-Aug-16 08:22N 41°24' E 029°13'23 2.0
2014-Aug-15 20:33N 41°32' E 029°42'21212.3
2014-Aug-15 03:20N 42°20' E 034°19'  
2014-Aug-10 01:06N 42°15' E 036°07'3011.1
2014-Aug-09 22:26N 42°19' E 035°27'1011.1
2014-Aug-09 21:33N 42°20' E 035°14'1110.8
2014-Aug-09 20:33N 42°22' E 034°60'  

Dump ship's entire track history